Terminal Aerodrome Forecast
Issued by NWS

Home | Current Version | Previous Version | Graphics & Text | Print | Product List | Glossary On
Versions: 1 2 3 4 5 6 7 8 9 10 11 12 13 14 15 16
000
FTUS42 KMHX 061743
TAFOAJ
TAF
KOAJ 061743Z 0618/0718 10007KT 5SM BR OVC004
      TEMPO 0618/0619 BKN005
     FM062100 25006KT P6SM VCSH SCT003 OVC007
     FM070300 28007KT 5SM BR SCT003 BKN007
     FM071300 34005KT P6SM SCT250
      AMD LTD TO CLD VIS AND WIND=

USA.gov is the U.S. government's official web portal to all federal, state and local government web resources and services.